Time;durP1;ratioP1;P1;durP2;ratioP2;P2;SDS_P1;SDS_P2;PMS_P1;PMS_P2;Temp;Humidity;BMP_temperature;BMP_pressure;BME280_temperature;BME280_humidity;BME280_pressure;Samples;Min_cycle;Max_cycle;Signal;HPM_P1;HPM_P2
2020/12/08 00:00:35;;;;;;;4.45;2.15;;;;;;;;;;5033171;28;20386;-56
2020/12/08 00:03:01;;;;;;;6.22;1.88;;;;;;;;;;5032837;28;20053;-57
2020/12/08 00:05:28;;;;;;;4.75;1.55;;;;;;;;;;5033066;28;20049;-55
2020/12/08 00:07:54;;;;;;;2.92;1.10;;;;;;;;;;5032736;28;20042;-55
2020/12/08 00:10:20;;;;;;;3.58;1.33;;;;;;;;;;5037015;28;20045;-56
2020/12/08 00:12:50;;;;;;;4.97;1.20;;;;;;;;;;5036991;28;20053;-55
2020/12/08 00:15:16;;;;;;;3.03;1.50;;;;;;;;;;5036921;28;20095;-56
2020/12/08 00:17:43;;;;;;;3.03;1.42;;;;;;;;;;5036802;28;20032;-56
2020/12/08 00:20:10;;;;;;;3.80;1.52;;;;;;;;;;5036676;28;20033;-57
2020/12/08 00:22:37;;;;;;;2.78;1.50;;;;;;;;;;5036509;28;20028;-55
2020/12/08 00:25:07;;;;;;;4.60;1.27;;;;;;;;;;5036934;28;20423;-55
2020/12/08 00:27:34;;;;;;;3.05;1.73;;;;;;;;;;5036697;28;20080;-55
2020/12/08 00:30:00;;;;;;;3.50;1.58;;;;;;;;;;5036405;28;20062;-56
2020/12/08 00:32:26;;;;;;;3.40;1.63;;;;;;;;;;5036489;28;20039;-54
2020/12/08 00:34:53;;;;;;;3.50;1.30;;;;;;;;;;5036381;28;20045;-55
2020/12/08 00:37:19;;;;;;;1.92;1.23;;;;;;;;;;5036278;28;20406;-54
2020/12/08 00:39:45;;;;;;;2.90;1.40;;;;;;;;;;5018557;28;20382;-57
2020/12/08 00:42:11;;;;;;;2.42;1.20;;;;;;;;;;5036284;28;20024;-57
2020/12/08 00:44:37;;;;;;;3.92;1.73;;;;;;;;;;5036130;28;20394;-56
2020/12/08 00:47:04;;;;;;;3.22;1.63;;;;;;;;;;5036396;28;20053;-55
2020/12/08 00:49:30;;;;;;;4.28;1.63;;;;;;;;;;5036092;28;20113;-56
2020/12/08 00:51:57;;;;;;;5.05;2.05;;;;;;;;;;5036080;28;20143;-56
2020/12/08 00:54:23;;;;;;;4.07;1.77;;;;;;;;;;5036136;28;20026;-57
2020/12/08 00:56:49;;;;;;;3.53;1.38;;;;;;;;;;5036083;28;20195;-56
2020/12/08 00:59:16;;;;;;;3.25;1.67;;;;;;;;;;5035993;28;20041;-54
2020/12/08 01:01:42;;;;;;;5.03;2.00;;;;;;;;;;5035966;28;20021;-54
2020/12/08 01:04:09;;;;;;;3.88;1.70;;;;;;;;;;5036160;28;20045;-57
2020/12/08 01:06:41;;;;;;;5.93;2.10;;;;;;;;;;5035974;28;20049;-54
2020/12/08 01:09:08;;;;;;;4.05;1.55;;;;;;;;;;5035531;28;20061;-57
2020/12/08 01:11:40;;;;;;;4.70;2.03;;;;;;;;;;5035993;28;20447;-56
2020/12/08 01:14:06;;;;;;;6.40;2.80;;;;;;;;;;5035654;28;20478;-52
2020/12/08 01:16:33;;;;;;;4.05;2.10;;;;;;;;;;5036039;28;20548;-53
2020/12/08 01:18:59;;;;;;;4.72;2.20;;;;;;;;;;5035588;28;20382;-55
2020/12/08 01:21:25;;;;;;;6.10;2.80;;;;;;;;;;5034797;28;20379;-56
2020/12/08 01:23:51;;;;;;;5.95;2.38;;;;;;;;;;5035317;28;20026;-57
2020/12/08 01:26:21;;;;;;;7.30;2.00;;;;;;;;;;5035598;28;20029;-57
2020/12/08 01:28:47;;;;;;;3.90;2.05;;;;;;;;;;5035534;28;20068;-55
2020/12/08 01:31:13;;;;;;;3.90;1.83;;;;;;;;;;5035203;28;20053;-57
2020/12/08 01:33:40;;;;;;;4.70;2.17;;;;;;;;;;5035302;28;20030;-57
2020/12/08 01:36:06;;;;;;;3.55;1.77;;;;;;;;;;5035313;28;20025;-56
2020/12/08 01:38:32;;;;;;;3.75;1.80;;;;;;;;;;5035603;28;20049;-54
2020/12/08 01:40:58;;;;;;;3.65;1.92;;;;;;;;;;5035302;28;20028;-56
2020/12/08 01:43:24;;;;;;;4.60;2.40;;;;;;;;;;5035177;28;20071;-54
2020/12/08 01:45:50;;;;;;;3.95;1.83;;;;;;;;;;5034990;28;20033;-55
2020/12/08 01:48:17;;;;;;;3.60;2.03;;;;;;;;;;5035107;28;20034;-55
2020/12/08 01:50:45;;;;;;;3.78;2.08;;;;;;;;;;5035088;28;20390;-52
2020/12/08 01:53:11;;;;;;;5.10;2.28;;;;;;;;;;5035115;28;20022;-55
2020/12/08 01:55:41;;;;;;;6.10;2.75;;;;;;;;;;5034779;28;20033;-53
2020/12/08 01:58:20;;;;;;;4.57;2.20;;;;;;;;;;5034965;28;20455;-55
2020/12/08 02:00:46;;;;;;;3.63;1.88;;;;;;;;;;5034768;28;20382;-58
2020/12/08 02:03:13;;;;;;;3.80;1.67;;;;;;;;;;5034777;28;20111;-55
2020/12/08 02:05:39;;;;;;;3.97;2.08;;;;;;;;;;5034624;28;20029;-53
2020/12/08 02:08:05;;;;;;;4.00;1.65;;;;;;;;;;5034655;28;20049;-52
2020/12/08 02:10:31;;;;;;;2.85;1.63;;;;;;;;;;5034413;28;20048;-55
2020/12/08 02:12:57;;;;;;;3.53;1.73;;;;;;;;;;5034722;28;20071;-54
2020/12/08 02:15:23;;;;;;;3.45;1.48;;;;;;;;;;5034862;28;20033;-54
2020/12/08 02:17:49;;;;;;;5.22;2.17;;;;;;;;;;5034666;28;20109;-54
2020/12/08 02:20:16;;;;;;;6.40;2.40;;;;;;;;;;5034484;28;20442;-51
2020/12/08 02:22:42;;;;;;;5.05;2.08;;;;;;;;;;5034518;28;20462;-54
2020/12/08 02:25:09;;;;;;;7.10;2.20;;;;;;;;;;5034317;28;20124;-52
2020/12/08 02:27:36;;;;;;;3.70;2.22;;;;;;;;;;5034537;28;20351;-54
2020/12/08 02:30:04;;;;;;;3.83;1.83;;;;;;;;;;5034214;28;20110;-54
2020/12/08 02:32:30;;;;;;;4.13;1.92;;;;;;;;;;5034208;28;20030;-54
2020/12/08 02:34:56;;;;;;;4.38;2.10;;;;;;;;;;5034134;28;20458;-54
2020/12/08 02:37:22;;;;;;;4.00;1.50;;;;;;;;;;5034336;28;20059;-54
2020/12/08 02:39:48;;;;;;;4.13;1.60;;;;;;;;;;5033996;28;20030;-52
2020/12/08 02:42:15;;;;;;;5.57;1.60;;;;;;;;;;5034416;28;20381;-55
2020/12/08 02:44:41;;;;;;;2.53;1.48;;;;;;;;;;5034091;28;20022;-54
2020/12/08 02:47:08;;;;;;;4.00;1.40;;;;;;;;;;5033965;28;20509;-52
2020/12/08 02:49:34;;;;;;;5.10;1.50;;;;;;;;;;5033860;28;20096;-53
2020/12/08 02:52:00;;;;;;;6.70;1.40;;;;;;;;;;5033964;28;20022;-57
2020/12/08 02:54:26;;;;;;;3.83;1.20;;;;;;;;;;5033910;28;20104;-57
2020/12/08 02:56:52;;;;;;;3.90;1.30;;;;;;;;;;5034283;28;20037;-54
2020/12/08 02:59:19;;;;;;;5.93;1.20;;;;;;;;;;5033690;28;20026;-53
2020/12/08 03:01:45;;;;;;;3.13;1.17;;;;;;;;;;5033703;28;20029;-55
2020/12/08 03:04:11;;;;;;;4.82;1.50;;;;;;;;;;5033981;28;20022;-56
2020/12/08 03:06:41;;;;;;;3.25;1.35;;;;;;;;;;5033708;28;20037;-53
2020/12/08 03:09:08;;;;;;;3.13;1.50;;;;;;;;;;5033328;28;20053;-57
2020/12/08 03:11:34;;;;;;;6.03;1.50;;;;;;;;;;5033841;28;20087;-57
2020/12/08 03:14:00;;;;;;;4.07;1.25;;;;;;;;;;5033679;28;20088;-57
2020/12/08 03:16:26;;;;;;;2.60;0.80;;;;;;;;;;5033557;28;20127;-57
2020/12/08 03:18:52;;;;;;;2.38;0.90;;;;;;;;;;5033283;28;20025;-56
2020/12/08 03:21:18;;;;;;;1.52;0.70;;;;;;;;;;5033299;28;20382;-54
2020/12/08 03:23:45;;;;;;;2.97;0.70;;;;;;;;;;5033509;28;20044;-53
2020/12/08 03:26:11;;;;;;;2.40;0.68;;;;;;;;;;5033431;28;20083;-56
2020/12/08 03:28:37;;;;;;;3.17;0.80;;;;;;;;;;5033458;28;20075;-54
2020/12/08 03:31:03;;;;;;;4.07;1.10;;;;;;;;;;5033017;28;20065;-56
2020/12/08 03:33:29;;;;;;;3.22;0.70;;;;;;;;;;5015780;28;20029;-53
2020/12/08 03:35:55;;;;;;;2.30;0.82;;;;;;;;;;5033138;28;20041;-56
2020/12/08 03:38:22;;;;;;;2.20;0.98;;;;;;;;;;5033170;28;20036;-54
2020/12/08 03:40:48;;;;;;;2.28;0.60;;;;;;;;;;5033075;28;20025;-54
2020/12/08 03:43:14;;;;;;;1.35;0.40;;;;;;;;;;5032559;28;20029;-56
2020/12/08 03:45:40;;;;;;;1.60;0.52;;;;;;;;;;5033071;28;20436;-54
2020/12/08 03:48:07;;;;;;;4.70;0.40;;;;;;;;;;5033195;28;20108;-56
2020/12/08 03:50:33;;;;;;;2.50;0.38;;;;;;;;;;5032895;28;20037;-55
2020/12/08 03:52:59;;;;;;;1.50;0.47;;;;;;;;;;5032940;28;20025;-55
2020/12/08 03:55:25;;;;;;;3.03;0.63;;;;;;;;;;5033148;28;20037;-54
2020/12/08 03:57:51;;;;;;;1.45;0.50;;;;;;;;;;5033085;28;20022;-58
2020/12/08 04:00:17;;;;;;;3.50;0.50;;;;;;;;;;5032938;28;20470;-55
2020/12/08 04:02:43;;;;;;;1.20;0.35;;;;;;;;;;5033058;28;20018;-57
2020/12/08 04:05:09;;;;;;;1.60;0.50;;;;;;;;;;5032975;28;20038;-53
2020/12/08 04:07:35;;;;;;;8.20;4.07;;;;;;;;;;5032628;28;20490;-56
2020/12/08 04:10:02;;;;;;;7.28;2.67;;;;;;;;;;5032762;28;20034;-54
2020/12/08 04:12:28;;;;;;;2.90;0.80;;;;;;;;;;5032855;28;20022;-53
2020/12/08 04:14:54;;;;;;;4.18;1.52;;;;;;;;;;5032850;28;20049;-57
2020/12/08 04:17:20;;;;;;;6.97;3.00;;;;;;;;;;5033013;28;20021;-56
2020/12/08 04:19:46;;;;;;;3.00;1.10;;;;;;;;;;5033308;28;20029;-51
2020/12/08 04:22:13;;;;;;;3.45;1.15;;;;;;;;;;5032679;28;20025;-55
2020/12/08 04:24:39;;;;;;;3.88;1.10;;;;;;;;;;5032685;28;20080;-54
2020/12/08 04:27:05;;;;;;;5.28;1.77;;;;;;;;;;5032883;28;20072;-56
2020/12/08 04:29:31;;;;;;;3.88;1.63;;;;;;;;;;5032708;28;20462;-51
2020/12/08 04:31:57;;;;;;;2.38;0.88;;;;;;;;;;5032598;28;20052;-54
2020/12/08 04:34:24;;;;;;;3.35;0.70;;;;;;;;;;5032771;28;20164;-54
2020/12/08 04:36:50;;;;;;;1.00;0.45;;;;;;;;;;5032507;28;20026;-56
2020/12/08 04:39:16;;;;;;;0.95;0.45;;;;;;;;;;5032736;28;20434;-53
2020/12/08 04:41:42;;;;;;;2.72;0.40;;;;;;;;;;5032725;28;20048;-51
2020/12/08 04:44:09;;;;;;;2.15;0.40;;;;;;;;;;5032587;28;20025;-52
2020/12/08 04:46:36;;;;;;;2.47;0.63;;;;;;;;;;5032453;28;20060;-53
2020/12/08 04:49:02;;;;;;;1.75;0.47;;;;;;;;;;5032534;28;20484;-52
2020/12/08 04:51:29;;;;;;;1.88;0.70;;;;;;;;;;5032371;28;20029;-55
2020/12/08 04:53:55;;;;;;;2.42;0.50;;;;;;;;;;5032637;28;20025;-55
2020/12/08 04:56:21;;;;;;;2.63;0.57;;;;;;;;;;5034633;28;20029;-52
2020/12/08 04:58:47;;;;;;;1.55;0.60;;;;;;;;;;5036271;28;20037;-56
2020/12/08 05:01:24;;;;;;;1.77;0.30;;;;;;;;;;5036061;28;20424;-52
2020/12/08 05:04:00;;;;;;;1.90;0.40;;;;;;;;;;5036034;28;20025;-55
2020/12/08 05:06:29;;;;;;;1.33;0.55;;;;;;;;;;5036265;28;20083;-57
2020/12/08 05:09:01;;;;;;;1.55;0.20;;;;;;;;;;5035759;28;20053;-56
2020/12/08 05:11:28;;;;;;;9.23;0.80;;;;;;;;;;5036045;28;20132;-55
2020/12/08 05:13:58;;;;;;;0.95;0.20;;;;;;;;;;5035886;28;20021;-56
2020/12/08 05:16:24;;;;;;;2.67;0.40;;;;;;;;;;5035538;28;20072;-55
2020/12/08 05:18:50;;;;;;;3.20;0.40;;;;;;;;;;5035613;28;20022;-54
2020/12/08 05:21:16;;;;;;;3.63;0.32;;;;;;;;;;5035538;28;20021;-57
2020/12/08 05:23:46;;;;;;;1.10;0.50;;;;;;;;;;5035651;28;20053;-56
2020/12/08 05:26:13;;;;;;;2.25;0.82;;;;;;;;;;5035487;28;20491;-57
2020/12/08 05:28:40;;;;;;;2.67;0.40;;;;;;;;;;5035575;28;20103;-56
2020/12/08 05:31:06;;;;;;;1.50;0.50;;;;;;;;;;5035123;28;20069;-56
2020/12/08 05:33:33;;;;;;;2.65;0.40;;;;;;;;;;5035345;28;20037;-57
2020/12/08 05:35:59;;;;;;;1.70;0.40;;;;;;;;;;5035268;28;20111;-57
2020/12/08 05:38:34;;;;;;;1.95;0.47;;;;;;;;;;5035565;28;20051;-56
2020/12/08 05:41:02;;;;;;;2.10;0.52;;;;;;;;;;5035033;28;20026;-55
2020/12/08 05:43:39;;;;;;;4.25;0.80;;;;;;;;;;5035615;28;20024;-55
2020/12/08 05:46:09;;;;;;;3.33;0.95;;;;;;;;;;5035146;28;20029;-56
2020/12/08 05:48:36;;;;;;;1.73;0.50;;;;;;;;;;5035098;28;20025;-55
2020/12/08 05:51:05;;;;;;;2.17;0.40;;;;;;;;;;5034912;28;20041;-55
2020/12/08 05:53:32;;;;;;;3.03;0.60;;;;;;;;;;5035080;28;20104;-56
2020/12/08 05:56:04;;;;;;;1.35;0.30;;;;;;;;;;5034714;28;20034;-50
2020/12/08 05:58:30;;;;;;;1.52;0.22;;;;;;;;;;5035096;28;20026;-53
2020/12/08 06:01:06;;;;;;;1.65;0.40;;;;;;;;;;5035040;28;20089;-54
2020/12/08 06:03:33;;;;;;;1.58;0.40;;;;;;;;;;5034874;28;20029;-56
2020/12/08 06:06:09;;;;;;;3.17;0.40;;;;;;;;;;5034393;28;20026;-56
2020/12/08 06:08:42;;;;;;;3.88;0.30;;;;;;;;;;5034869;28;20061;-53
2020/12/08 06:11:08;;;;;;;1.95;1.08;;;;;;;;;;5034498;28;20041;-55
2020/12/08 06:13:35;;;;;;;1.95;0.43;;;;;;;;;;5034542;28;20025;-57
2020/12/08 06:16:13;;;;;;;3.58;0.47;;;;;;;;;;5034604;28;20033;-57
2020/12/08 06:18:39;;;;;;;1.35;0.50;;;;;;;;;;5034585;28;20028;-54
2020/12/08 06:21:17;;;;;;;1.75;0.63;;;;;;;;;;5034393;28;20494;-57
2020/12/08 06:23:46;;;;;;;1.98;0.30;;;;;;;;;;5034397;28;20021;-56
2020/12/08 06:26:13;;;;;;;3.00;0.47;;;;;;;;;;5034416;28;20108;-55
2020/12/08 06:28:39;;;;;;;1.75;0.40;;;;;;;;;;5034455;28;20017;-58
2020/12/08 06:31:06;;;;;;;1.55;0.50;;;;;;;;;;5016551;28;20037;-56
2020/12/08 06:33:33;;;;;;;3.42;0.50;;;;;;;;;;5016412;28;20036;-57
2020/12/08 06:36:00;;;;;;;2.42;0.50;;;;;;;;;;5034083;28;20035;-56
2020/12/08 06:38:27;;;;;;;2.35;1.00;;;;;;;;;;5034145;28;20026;-57
2020/12/08 06:40:54;;;;;;;2.17;0.40;;;;;;;;;;5034248;28;20036;-58
2020/12/08 06:43:20;;;;;;;2.50;0.73;;;;;;;;;;5034159;28;20022;-54
2020/12/08 06:45:47;;;;;;;2.25;0.60;;;;;;;;;;5033746;28;20438;-54
2020/12/08 06:48:20;;;;;;;2.75;0.57;;;;;;;;;;5033861;28;20025;-55
2020/12/08 06:50:47;;;;;;;2.63;0.75;;;;;;;;;;5034042;28;20038;-54
2020/12/08 06:53:13;;;;;;;2.72;0.60;;;;;;;;;;5033898;28;20053;-57
2020/12/08 06:55:49;;;;;;;1.60;0.50;;;;;;;;;;5014031;28;20057;-54
2020/12/08 06:58:16;;;;;;;1.08;0.47;;;;;;;;;;5033483;28;20524;-50
2020/12/08 07:00:44;;;;;;;3.70;1.10;;;;;;;;;;5033757;28;20026;-58
2020/12/08 07:03:11;;;;;;;4.00;0.80;;;;;;;;;;5033744;28;20036;-58
2020/12/08 07:05:37;;;;;;;1.48;0.60;;;;;;;;;;5033447;28;20029;-56
2020/12/08 07:08:05;;;;;;;2.38;0.60;;;;;;;;;;5033414;28;20049;-56
2020/12/08 07:10:36;;;;;;;6.95;3.60;;;;;;;;;;5033412;28;20037;-56
2020/12/08 07:13:08;;;;;;;1.85;0.47;;;;;;;;;;5033620;28;20025;-56
2020/12/08 07:15:35;;;;;;;1.23;0.70;;;;;;;;;;5034064;28;20036;-58
2020/12/08 07:18:05;;;;;;;3.50;0.90;;;;;;;;;;5032569;28;20076;-58
2020/12/08 07:20:31;;;;;;;3.83;1.25;;;;;;;;;;5033284;28;20041;-57
2020/12/08 07:23:01;;;;;;;1.98;1.02;;;;;;;;;;5033494;28;20029;-56
2020/12/08 07:25:27;;;;;;;1.73;0.73;;;;;;;;;;5033706;28;20037;-58
2020/12/08 07:27:54;;;;;;;3.13;1.67;;;;;;;;;;5033370;28;20042;-58
2020/12/08 07:30:22;;;;;;;2.53;1.08;;;;;;;;;;5033491;28;20033;-57
2020/12/08 07:32:48;;;;;;;3.92;1.20;;;;;;;;;;5033204;28;20049;-57
2020/12/08 07:35:27;;;;;;;2.85;0.85;;;;;;;;;;5033192;28;20138;-57
2020/12/08 07:37:55;;;;;;;3.17;1.23;;;;;;;;;;5033090;28;20028;-57
2020/12/08 07:40:22;;;;;;;4.47;1.55;;;;;;;;;;5033691;28;20103;-57
2020/12/08 07:42:49;;;;;;;1.70;1.08;;;;;;;;;;5033154;28;20028;-56
2020/12/08 07:45:15;;;;;;;1.75;0.80;;;;;;;;;;5033643;28;20081;-57
2020/12/08 07:47:42;;;;;;;2.40;1.23;;;;;;;;;;5033037;28;20024;-57
2020/12/08 07:50:08;;;;;;;2.97;1.15;;;;;;;;;;5032924;28;20513;-57
2020/12/08 07:52:34;;;;;;;2.25;1.40;;;;;;;;;;5033003;28;20017;-57
2020/12/08 07:55:00;;;;;;;1.65;1.13;;;;;;;;;;5032938;28;20029;-57
2020/12/08 07:57:26;;;;;;;2.17;0.55;;;;;;;;;;5032961;28;20097;-57
2020/12/08 07:59:53;;;;;;;1.98;0.77;;;;;;;;;;5032289;28;20029;-55
2020/12/08 08:02:19;;;;;;;2.45;1.00;;;;;;;;;;5032774;28;20076;-57
2020/12/08 08:04:45;;;;;;;4.25;1.33;;;;;;;;;;5033268;28;20056;-55
2020/12/08 08:07:11;;;;;;;3.25;1.48;;;;;;;;;;5032868;28;20080;-56
2020/12/08 08:09:38;;;;;;;4.13;1.40;;;;;;;;;;5032381;28;20060;-56
2020/12/08 08:12:04;;;;;;;6.03;1.80;;;;;;;;;;5015061;28;20025;-57
2020/12/08 08:14:30;;;;;;;6.30;2.35;;;;;;;;;;5032868;28;20025;-57
2020/12/08 08:16:56;;;;;;;8.60;5.35;;;;;;;;;;5033151;28;20032;-57
2020/12/08 08:19:22;;;;;;;15.43;9.18;;;;;;;;;;5032794;28;20105;-58
2020/12/08 08:21:48;;;;;;;4.00;2.20;;;;;;;;;;5032895;28;20056;-58
2020/12/08 08:24:15;;;;;;;12.32;5.93;;;;;;;;;;5032607;28;20083;-57
2020/12/08 08:26:41;;;;;;;17.98;11.13;;;;;;;;;;5032675;28;20076;-57
2020/12/08 08:29:08;;;;;;;9.05;4.95;;;;;;;;;;5033062;28;20036;-59
2020/12/08 08:31:34;;;;;;;6.68;3.58;;;;;;;;;;5036612;28;20502;-58
2020/12/08 08:34:01;;;;;;;11.68;8.82;;;;;;;;;;5036281;28;20025;-58
2020/12/08 08:36:28;;;;;;;1.10;0.63;;;;;;;;;;5036485;28;20040;-58
2020/12/08 08:38:54;;;;;;;6.95;4.07;;;;;;;;;;5036281;28;20029;-57
2020/12/08 08:41:20;;;;;;;3.15;1.33;;;;;;;;;;5036350;28;20029;-55
2020/12/08 08:43:46;;;;;;;1.48;0.77;;;;;;;;;;5036208;28;20025;-58
2020/12/08 08:46:13;;;;;;;1.75;0.30;;;;;;;;;;5018486;28;20029;-57
2020/12/08 08:48:39;;;;;;;1.33;0.40;;;;;;;;;;5036408;28;20049;-53
2020/12/08 08:51:05;;;;;;;1.52;0.38;;;;;;;;;;5036017;28;20415;-57
2020/12/08 08:53:31;;;;;;;2.58;0.60;;;;;;;;;;5036269;28;20104;-58
2020/12/08 08:55:57;;;;;;;1.00;0.30;;;;;;;;;;5035994;28;20079;-58
2020/12/08 08:58:23;;;;;;;1.88;0.20;;;;;;;;;;5035925;28;20025;-58
2020/12/08 09:00:49;;;;;;;0.55;0.38;;;;;;;;;;5035936;28;20037;-56
2020/12/08 09:03:15;;;;;;;2.15;0.63;;;;;;;;;;5036137;28;20030;-58
2020/12/08 09:05:42;;;;;;;0.20;0.10;;;;;;;;;;5036178;28;20025;-56
2020/12/08 09:08:08;;;;;;;1.65;0.17;;;;;;;;;;5035691;28;20049;-55
2020/12/08 09:10:34;;;;;;;0.68;0.20;;;;;;;;;;5035653;28;20042;-57
2020/12/08 09:13:00;;;;;;;1.65;0.20;;;;;;;;;;5036005;28;20105;-57
2020/12/08 09:15:26;;;;;;;1.60;0.20;;;;;;;;;;5035692;28;20033;-56
2020/12/08 09:17:52;;;;;;;0.30;0.13;;;;;;;;;;5035894;28;20099;-58
2020/12/08 09:20:19;;;;;;;1.23;0.20;;;;;;;;;;5035613;28;20034;-56
2020/12/08 09:22:45;;;;;;;0.57;0.30;;;;;;;;;;5035405;28;20468;-56
2020/12/08 09:25:11;;;;;;;3.80;2.53;;;;;;;;;;5035672;28;20430;-57
2020/12/08 09:27:37;;;;;;;1.35;0.10;;;;;;;;;;5035084;28;20099;-49
2020/12/08 09:30:04;;;;;;;0.93;0.30;;;;;;;;;;5023245;28;20060;-57
2020/12/08 09:32:30;;;;;;;0.70;0.40;;;;;;;;;;5035297;28;20466;-50
2020/12/08 09:34:57;;;;;;;1.42;0.35;;;;;;;;;;5035162;28;20026;-51
2020/12/08 09:37:24;;;;;;;0.88;0.40;;;;;;;;;;5034713;28;20026;-55
2020/12/08 09:39:52;;;;;;;0.50;0.20;;;;;;;;;;5035230;28;20025;-57
2020/12/08 09:42:18;;;;;;;2.20;0.90;;;;;;;;;;5034170;28;20021;-55
2020/12/08 09:44:46;;;;;;;1.20;0.47;;;;;;;;;;5035400;28;20105;-57
2020/12/08 09:47:14;;;;;;;2.58;1.23;;;;;;;;;;5035326;28;20033;-56
2020/12/08 09:49:41;;;;;;;5.13;1.33;;;;;;;;;;5035606;28;20041;-56
2020/12/08 09:52:07;;;;;;;4.53;1.83;;;;;;;;;;5035020;28;20029;-56
2020/12/08 09:54:33;;;;;;;1.83;0.30;;;;;;;;;;5034960;28;20482;-57
2020/12/08 09:56:59;;;;;;;0.50;0.30;;;;;;;;;;5035163;28;20482;-55
2020/12/08 09:59:25;;;;;;;0.70;0.35;;;;;;;;;;5035119;28;20025;-56
2020/12/08 10:01:52;;;;;;;0.32;0.20;;;;;;;;;;5034759;28;20080;-57
2020/12/08 10:04:18;;;;;;;1.42;0.52;;;;;;;;;;5034649;28;20040;-56
2020/12/08 10:06:44;;;;;;;3.88;1.40;;;;;;;;;;5035085;28;20390;-54
2020/12/08 10:09:10;;;;;;;1.58;0.40;;;;;;;;;;5034476;28;20559;-57
2020/12/08 10:11:37;;;;;;;0.65;0.30;;;11.20;99.90;;;;;;5034996;28;20367;-55
2020/12/08 10:14:03;;;;;;;0.80;0.40;;;7.10;99.90;;;;;;5034746;28;20375;-55
2020/12/08 10:16:28;;;;;;;0.70;0.20;;;7.00;99.90;;;;;;5016883;28;20063;-55
2020/12/08 10:18:54;;;;;;;0.90;0.40;;;6.90;99.90;;;;;;5034392;28;20029;-56
2020/12/08 10:21:21;;;;;;;0.90;0.22;;;6.90;99.90;;;;;;5034459;28;20070;-56
2020/12/08 10:23:48;;;;;;;0.50;0.20;;;6.90;99.90;;;;;;5034264;28;20514;-56
2020/12/08 10:26:14;;;;;;;1.15;0.20;;;6.90;99.90;;;;;;5034375;28;20064;-54
2020/12/08 10:28:40;;;;;;;0.60;0.25;;;6.90;99.90;;;;;;5034606;28;20052;-56
2020/12/08 10:31:06;;;;;;;1.20;0.20;;;6.90;99.90;;;;;;5016460;28;20143;-58
2020/12/08 10:33:32;;;;;;;0.70;0.30;;;6.90;99.90;;;;;;5034572;28;20042;-56
2020/12/08 10:35:58;;;;;;;0.57;0.10;;;;;;;;;;5034416;28;20041;-55
2020/12/08 10:38:25;;;;;;;1.27;0.52;;;;;;;;;;5034210;28;20032;-55
2020/12/08 10:40:51;;;;;;;1.42;0.20;;;;;;;;;;5033955;28;20036;-54
2020/12/08 10:43:19;;;;;;;3.13;1.30;;;;;;;;;;5034304;28;20029;-53
2020/12/08 10:45:45;;;;;;;2.40;1.42;;;;;;;;;;5034173;28;20060;-56
2020/12/08 10:48:11;;;;;;;2.58;1.50;;;;;;;;;;5032809;28;20018;-57
2020/12/08 10:50:37;;;;;;;1.42;0.63;;;;;;;;;;5033787;28;20068;-56
2020/12/08 10:53:04;;;;;;;1.25;0.60;;;;;;;;;;5033910;28;20022;-58
2020/12/08 10:55:30;;;;;;;4.22;2.00;;;;;;;;;;5033657;28;20040;-54
2020/12/08 10:57:56;;;;;;;9.90;4.95;;;;;;;;;;5033965;28;20021;-57
2020/12/08 11:00:22;;;;;;;3.47;1.58;;;;;;;;;;5034018;28;20394;-56
2020/12/08 11:02:48;;;;;;;10.45;4.20;;;;;;;;;;5033768;28;20434;-57
2020/12/08 11:05:14;;;;;;;3.00;0.90;;;;;;;;;;5033539;28;20029;-57
2020/12/08 11:07:40;;;;;;;0.82;0.38;;;;;;;;;;5033874;28;20383;-58
2020/12/08 11:10:06;;;;;;;0.63;0.22;;;;;;;;;;5033461;28;20038;-55
2020/12/08 11:12:33;;;;;;;0.70;0.30;;;;;;;;;;5033604;28;20025;-58
2020/12/08 11:14:59;;;;;;;1.70;0.57;;;;;;;;;;5015755;28;20022;-52
2020/12/08 11:17:25;;;;;;;1.63;0.95;;;;;;;;;;5033556;28;20021;-55
2020/12/08 11:19:51;;;;;;;2.33;1.42;;;;;;;;;;5011847;28;20021;-55
2020/12/08 11:22:17;;;;;;;4.47;1.20;;;;;;;;;;5029795;28;20041;-55
2020/12/08 11:24:44;;;;;;;5.50;3.42;;;;;;;;;;5029937;28;20084;-52
2020/12/08 11:27:14;;;;;;;2.17;0.93;;;;;;;;;;5031118;28;21086;-50
2020/12/08 11:29:40;;;;;;;2.50;1.08;;;;;;;;;;5030724;28;20477;-52
2020/12/08 11:32:07;;;;;;;2.53;1.45;;;;;;;;;;5031597;28;20482;-56
2020/12/08 11:34:33;;;;;;;2.78;1.60;;;;;;;;;;5013806;28;20446;-57
2020/12/08 11:36:59;;;;;;;6.13;2.90;;;;;;;;;;5031601;28;20039;-57
2020/12/08 11:39:25;;;;;;;5.15;2.50;;;;;;;;;;5031434;28;20049;-55
2020/12/08 11:41:51;;;;;;;3.45;1.45;;;;;;;;;;5031625;28;20033;-57
2020/12/08 11:44:17;;;;;;;3.65;2.22;;;;;;;;;;5031571;28;20026;-55
2020/12/08 11:46:47;;;;;;;3.33;1.92;;;;;;;;;;5029705;28;20068;-57
2020/12/08 11:49:14;;;;;;;3.85;1.42;;;;;;;;;;5030494;28;20092;-57
2020/12/08 11:51:40;;;;;;;3.90;2.08;;;;;;;;;;5030291;28;20454;-56
2020/12/08 11:54:06;;;;;;;2.00;1.58;;;;;;;;;;5031199;28;20120;-56
2020/12/08 11:56:32;;;;;;;3.00;0.90;;;;;;;;;;5031361;28;20053;-56
2020/12/08 11:58:58;;;;;;;4.47;1.15;;;;;;;;;;5031038;28;20454;-57
2020/12/08 12:01:24;;;;;;;1.45;0.70;;;;;;;;;;5031208;28;20053;-57
2020/12/08 12:03:51;;;;;;;1.75;0.73;;;;;;;;;;5037104;28;20078;-55
2020/12/08 12:06:18;;;;;;;2.25;1.65;;;;;;;;;;5037331;28;20466;-52
2020/12/08 12:08:44;;;;;;;3.97;2.40;;;;;;;;;;5055147;28;20045;-57
2020/12/08 12:11:10;;;;;;;3.10;2.13;;;;;;;;;;5054863;28;20482;-56
2020/12/08 12:13:36;;;;;;;3.50;1.83;;;;;;;;;;5055092;28;20040;-56
2020/12/08 12:16:02;;;;;;;4.57;1.60;;;;;;;;;;5055477;28;20028;-57
2020/12/08 12:18:29;;;;;;;3.58;2.05;;;;;;;;;;5055205;28;20037;-56
2020/12/08 12:20:55;;;;;;;2.95;1.85;;;;;;;;;;5055252;28;20035;-55
2020/12/08 12:23:21;;;;;;;4.47;2.90;;;;;;;;;;5054276;28;20116;-57
2020/12/08 12:25:47;;;;;;;5.88;2.20;;;;;;;;;;5048938;28;20084;-53
2020/12/08 12:28:13;;;;;;;3.08;1.75;;;;;;;;;;5034565;28;20106;-54
2020/12/08 12:30:39;;;;;;;2.17;1.50;;;;;;;;;;5034697;28;20044;-58
2020/12/08 12:33:05;;;;;;;3.38;2.38;;;;;;;;;;5035043;28;20030;-49
2020/12/08 12:35:32;;;;;;;6.68;4.47;;;;;;;;;;5034858;28;20021;-52
2020/12/08 12:37:58;;;;;;;3.38;2.05;;;;;;;;;;5034600;28;20047;-51
2020/12/08 12:40:24;;;;;;;4.25;2.50;;;;;;;;;;5034960;28;20036;-54
2020/12/08 12:42:50;;;;;;;5.22;2.53;;;;;;;;;;5034459;28;20029;-57
2020/12/08 12:45:16;;;;;;;3.38;1.75;;;;;;;;;;5034702;28;20052;-57
2020/12/08 12:47:42;;;;;;;5.80;2.17;;;;;;;;;;5034462;28;20029;-57
2020/12/08 12:50:08;;;;;;;6.15;3.90;;;;;;;;;;5034536;28;20490;-57
2020/12/08 12:52:34;;;;;;;3.25;1.85;;;;;;;;;;5033043;28;20501;-52
2020/12/08 12:55:01;;;;;;;2.60;1.63;;;;;;;;;;5034380;28;20017;-57
2020/12/08 12:57:27;;;;;;;4.38;2.30;;;;;;;;;;5033976;28;20037;-56
2020/12/08 12:59:53;;;;;;;7.20;4.60;;;;;;;;;;5034487;28;20026;-54
2020/12/08 13:02:19;;;;;;;4.50;3.00;;;;;;;;;;4999995;28;20033;-54
2020/12/08 13:04:45;;;;;;;3.35;1.80;;;;;;;;;;5021265;28;20161;-57
2020/12/08 13:07:17;;;;;;;5.40;2.78;;;;;;;;;;5032118;28;20030;-56
2020/12/08 13:09:43;;;;;;;4.72;2.90;;;;;;;;;;5015620;28;20077;-57
2020/12/08 13:12:09;;;;;;;6.07;3.33;;;;;;;;;;5032888;28;20079;-48
2020/12/08 13:14:35;;;;;;;12.48;6.53;;;;;;;;;;5032403;28;20025;-57
2020/12/08 13:17:02;;;;;;;7.20;4.53;;;;;;;;;;5031100;28;20044;-56
2020/12/08 13:19:28;;;;;;;7.28;4.35;;;;;;;;;;5033406;28;20493;-57
2020/12/08 13:21:55;;;;;;;7.40;3.75;;;;;;;;;;5033806;28;20025;-58
2020/12/08 13:24:21;;;;;;;9.93;4.07;;;;;;;;;;5016181;28;20072;-54
2020/12/08 13:26:47;;;;;;;10.63;4.53;;;;;;;;;;5033750;28;20029;-58
2020/12/08 13:29:13;;;;;;;6.07;2.17;;;;;;;;;;5033386;28;20026;-57
2020/12/08 13:31:39;;;;;;;8.25;3.50;;;;;;;;;;5033319;28;20486;-56
2020/12/08 13:34:06;;;;;;;6.68;4.20;;;;;;;;;;5032885;28;20534;-49
2020/12/08 13:36:33;;;;;;;3.92;1.85;;;;;;;;;;5032751;28;20033;-56
2020/12/08 13:38:59;;;;;;;8.63;5.70;;;;;;;;;;5031110;28;20072;-57
2020/12/08 13:41:25;;;;;;;6.28;4.57;;;;;;;;;;5032895;28;20057;-57
2020/12/08 13:43:51;;;;;;;9.50;4.50;;;;;;;;;;5033040;28;20112;-56
2020/12/08 13:46:24;;;;;;;8.43;4.95;;;;;;;;;;5031769;28;20033;-57
2020/12/08 13:48:50;;;;;;;8.10;5.15;;;;;;;;;;5032724;28;20029;-57
2020/12/08 13:51:17;;;;;;;8.25;4.93;;;;;;;;;;5032306;28;20088;-57
2020/12/08 13:53:44;;;;;;;8.95;4.85;;;;;;;;;;5031394;28;20033;-58
2020/12/08 13:56:10;;;;;;;9.70;5.45;;;;;;;;;;5033141;28;20028;-53
2020/12/08 13:58:36;;;;;;;11.18;5.53;;;;;;;;;;5033354;28;20029;-57
2020/12/08 14:01:03;;;;;;;8.68;4.70;;;;;;;;;;5033544;28;20052;-53
2020/12/08 14:03:29;;;;;;;8.98;6.32;;;;;;;;;;5032032;28;20106;-53
2020/12/08 14:05:56;;;;;;;5.82;3.10;;;;;;;;;;5033140;28;20040;-53
2020/12/08 14:08:23;;;;;;;9.65;3.50;;;;;;;;;;5031309;28;20041;-57
2020/12/08 14:10:49;;;;;;;6.28;2.90;;;;;;;;;;5033138;28;20073;-56
2020/12/08 14:13:22;;;;;;;6.10;3.00;;;;;;;;;;5032926;28;20112;-50
2020/12/08 14:15:50;;;;;;;5.00;2.38;;;;;;;;;;5033001;28;20021;-56
2020/12/08 14:18:17;;;;;;;9.90;3.10;;;;;;;;;;5033021;28;20413;-57
2020/12/08 14:20:43;;;;;;;9.38;3.35;;;;;;;;;;5032630;28;20466;-58
2020/12/08 14:23:09;;;;;;;4.00;2.28;;;;;;;;;;5032803;28;20026;-57
2020/12/08 14:25:36;;;;;;;3.53;1.50;;;;;;;;;;5032798;28;20510;-57
2020/12/08 14:28:02;;;;;;;5.50;1.88;;;;;;;;;;5032317;28;20422;-57
2020/12/08 14:30:28;;;;;;;5.75;2.30;;;;;;;;;;5032609;28;20084;-57
2020/12/08 14:32:54;;;;;;;2.45;1.55;;;;;;;;;;5032733;28;20477;-54
2020/12/08 14:35:21;;;;;;;5.32;2.38;;;;;;;;;;5032786;28;20053;-53